sensor_id;sensor_type;location;lat;lon;timestamp;pressure;altitude;pressure_sealevel;temperature;humidity
21742;BME280;11033;47.490;11.116;2022-08-06T00:00:39;93603.28;;;18.71;83.03
21742;BME280;11033;47.490;11.116;2022-08-06T00:03:04;93607.94;;;18.75;80.70
21742;BME280;11033;47.490;11.116;2022-08-06T00:05:29;93613.53;;;18.85;78.78
21742;BME280;11033;47.490;11.116;2022-08-06T00:07:55;93613.28;;;18.57;81.94
21742;BME280;11033;47.490;11.116;2022-08-06T00:10:22;93618.16;;;18.78;78.92
21742;BME280;11033;47.490;11.116;2022-08-06T00:12:47;93619.69;;;18.86;79.55
21742;BME280;11033;47.490;11.116;2022-08-06T00:15:12;93619.19;;;18.77;79.54
21742;BME280;11033;47.490;11.116;2022-08-06T00:17:38;93618.69;;;18.68;81.27
21742;BME280;11033;47.490;11.116;2022-08-06T00:20:05;93641.91;;;18.68;83.08
21742;BME280;11033;47.490;11.116;2022-08-06T00:22:31;93656.16;;;18.44;84.50
21742;BME280;11033;47.490;11.116;2022-08-06T00:24:57;93662.09;;;18.64;80.68
21742;BME280;11033;47.490;11.116;2022-08-06T00:27:22;93665.56;;;18.64;83.04
21742;BME280;11033;47.490;11.116;2022-08-06T00:29:47;93668.41;;;18.81;79.16
21742;BME280;11033;47.490;11.116;2022-08-06T00:32:13;93683.47;;;18.76;79.12
21742;BME280;11033;47.490;11.116;2022-08-06T00:34:39;93684.16;;;18.71;81.28
21742;BME280;11033;47.490;11.116;2022-08-06T00:37:04;93691.13;;;18.72;79.94
21742;BME280;11033;47.490;11.116;2022-08-06T00:39:29;93698.91;;;18.74;80.01
21742;BME280;11033;47.490;11.116;2022-08-06T00:41:54;93697.50;;;18.71;82.62
21742;BME280;11033;47.490;11.116;2022-08-06T00:44:20;93701.81;;;18.72;80.64
21742;BME280;11033;47.490;11.116;2022-08-06T00:46:45;93702.34;;;18.62;80.94
21742;BME280;11033;47.490;11.116;2022-08-06T00:49:12;93711.97;;;18.63;81.75
21742;BME280;11033;47.490;11.116;2022-08-06T00:51:38;93712.94;;;18.51;84.51
21742;BME280;11033;47.490;11.116;2022-08-06T00:54:04;93711.00;;;18.58;82.99
21742;BME280;11033;47.490;11.116;2022-08-06T00:56:29;93709.53;;;18.62;82.13
21742;BME280;11033;47.490;11.116;2022-08-06T00:58:55;93711.38;;;18.61;83.53
21742;BME280;11033;47.490;11.116;2022-08-06T01:01:20;93715.00;;;18.67;80.60
21742;BME280;11033;47.490;11.116;2022-08-06T01:03:46;93720.34;;;18.67;80.75
21742;BME280;11033;47.490;11.116;2022-08-06T01:06:11;93729.53;;;18.71;79.89
21742;BME280;11033;47.490;11.116;2022-08-06T01:08:36;93718.53;;;18.79;78.82
21742;BME280;11033;47.490;11.116;2022-08-06T01:11:02;93719.22;;;18.75;81.22
21742;BME280;11033;47.490;11.116;2022-08-06T01:13:27;93721.44;;;18.59;82.90
21742;BME280;11033;47.490;11.116;2022-08-06T01:16:07;93710.13;;;18.64;82.28
21742;BME280;11033;47.490;11.116;2022-08-06T01:18:41;93708.63;;;18.68;81.19
21742;BME280;11033;47.490;11.116;2022-08-06T01:26:39;93710.25;;;18.51;83.09
21742;BME280;11033;47.490;11.116;2022-08-06T01:29:29;93717.75;;;18.42;84.34
21742;BME280;11033;47.490;11.116;2022-08-06T01:32:11;93717.97;;;18.59;81.88
21742;BME280;11033;47.490;11.116;2022-08-06T01:34:41;93713.53;;;18.53;82.46
21742;BME280;11033;47.490;11.116;2022-08-06T01:37:17;93708.50;;;18.63;82.34
21742;BME280;11033;47.490;11.116;2022-08-06T01:39:50;93713.06;;;18.56;81.54
21742;BME280;11033;47.490;11.116;2022-08-06T01:42:19;93707.38;;;18.52;83.09
21742;BME280;11033;47.490;11.116;2022-08-06T01:44:47;93702.56;;;18.43;85.85
21742;BME280;11033;47.490;11.116;2022-08-06T01:47:16;93687.72;;;18.47;84.21
21742;BME280;11033;47.490;11.116;2022-08-06T01:49:45;93689.66;;;18.58;82.86
21742;BME280;11033;47.490;11.116;2022-08-06T01:52:12;93680.91;;;18.51;82.63
21742;BME280;11033;47.490;11.116;2022-08-06T01:54:40;93673.94;;;18.50;81.71
21742;BME280;11033;47.490;11.116;2022-08-06T01:57:09;93678.13;;;18.27;85.49
21742;BME280;11033;47.490;11.116;2022-08-06T01:59:38;93670.56;;;18.24;84.51
21742;BME280;11033;47.490;11.116;2022-08-06T02:02:08;93672.19;;;18.25;83.85
21742;BME280;11033;47.490;11.116;2022-08-06T02:04:37;93668.63;;;18.31;82.72
21742;BME280;11033;47.490;11.116;2022-08-06T02:07:08;93663.66;;;18.35;84.37
21742;BME280;11033;47.490;11.116;2022-08-06T02:09:35;93663.44;;;18.36;83.00
21742;BME280;11033;47.490;11.116;2022-08-06T02:12:07;93659.00;;;18.30;83.59
21742;BME280;11033;47.490;11.116;2022-08-06T02:14:39;93644.34;;;18.21;84.15
21742;BME280;11033;47.490;11.116;2022-08-06T02:17:05;93642.19;;;18.12;84.83
21742;BME280;11033;47.490;11.116;2022-08-06T02:19:32;93635.00;;;18.30;82.76
21742;BME280;11033;47.490;11.116;2022-08-06T02:21:59;93631.50;;;18.12;85.76
21742;BME280;11033;47.490;11.116;2022-08-06T02:24:28;93632.25;;;18.19;84.40
21742;BME280;11033;47.490;11.116;2022-08-06T02:26:56;93623.84;;;18.22;83.59
21742;BME280;11033;47.490;11.116;2022-08-06T02:29:24;93620.50;;;18.26;82.31
21742;BME280;11033;47.490;11.116;2022-08-06T02:31:51;93604.75;;;18.18;82.91
21742;BME280;11033;47.490;11.116;2022-08-06T02:34:19;93605.31;;;18.27;82.46
21742;BME280;11033;47.490;11.116;2022-08-06T02:36:51;93608.03;;;18.20;83.73
21742;BME280;11033;47.490;11.116;2022-08-06T02:39:19;93608.88;;;18.21;83.15
21742;BME280;11033;47.490;11.116;2022-08-06T02:42:02;93601.50;;;18.16;83.38
21742;BME280;11033;47.490;11.116;2022-08-06T02:44:38;93590.13;;;18.09;83.04
21742;BME280;11033;47.490;11.116;2022-08-06T02:47:09;93593.91;;;18.01;83.32
21742;BME280;11033;47.490;11.116;2022-08-06T02:49:38;93594.28;;;17.87;84.36
21742;BME280;11033;47.490;11.116;2022-08-06T02:52:13;93593.47;;;17.86;83.79
21742;BME280;11033;47.490;11.116;2022-08-06T02:54:44;93579.78;;;17.83;84.24
21742;BME280;11033;47.490;11.116;2022-08-06T02:57:16;93579.47;;;17.91;83.29
21742;BME280;11033;47.490;11.116;2022-08-06T02:59:47;93574.75;;;17.93;84.34
21742;BME280;11033;47.490;11.116;2022-08-06T03:02:14;93574.75;;;17.93;83.90
21742;BME280;11033;47.490;11.116;2022-08-06T03:04:46;93565.97;;;18.04;82.71
21742;BME280;11033;47.490;11.116;2022-08-06T03:07:13;93570.06;;;18.06;81.79
21742;BME280;11033;47.490;11.116;2022-08-06T03:09:40;93566.97;;;17.91;85.03
21742;BME280;11033;47.490;11.116;2022-08-06T03:12:10;93566.97;;;17.91;84.39
21742;BME280;11033;47.490;11.116;2022-08-06T03:14:38;93568.50;;;17.99;82.70
21742;BME280;11033;47.490;11.116;2022-08-06T03:17:06;93571.03;;;17.94;84.05
21742;BME280;11033;47.490;11.116;2022-08-06T03:19:32;93574.44;;;18.01;83.06
21742;BME280;11033;47.490;11.116;2022-08-06T03:21:59;93570.59;;;17.97;84.28
21742;BME280;11033;47.490;11.116;2022-08-06T03:24:26;93562.72;;;18.02;83.02
21742;BME280;11033;47.490;11.116;2022-08-06T03:26:57;93566.94;;;18.10;81.78
21742;BME280;11033;47.490;11.116;2022-08-06T03:29:25;93569.97;;;18.13;83.27
21742;BME280;11033;47.490;11.116;2022-08-06T03:31:50;93564.34;;;18.21;82.52
21742;BME280;11033;47.490;11.116;2022-08-06T03:34:16;93562.28;;;18.05;84.15
21742;BME280;11033;47.490;11.116;2022-08-06T03:36:42;93570.28;;;18.05;84.44
21742;BME280;11033;47.490;11.116;2022-08-06T03:39:08;93567.47;;;18.00;84.36
21742;BME280;11033;47.490;11.116;2022-08-06T03:41:38;93572.56;;;18.01;84.65
21742;BME280;11033;47.490;11.116;2022-08-06T03:44:04;93564.81;;;18.00;84.39
21742;BME280;11033;47.490;11.116;2022-08-06T03:46:52;93554.78;;;18.14;82.56
21742;BME280;11033;47.490;11.116;2022-08-06T03:49:25;93557.22;;;18.15;81.40
21742;BME280;11033;47.490;11.116;2022-08-06T03:51:53;93551.03;;;18.03;85.57
21742;BME280;11033;47.490;11.116;2022-08-06T03:54:25;93566.59;;;17.88;86.34
21742;BME280;11033;47.490;11.116;2022-08-06T03:56:52;93565.34;;;17.90;84.67
21742;BME280;11033;47.490;11.116;2022-08-06T03:59:20;93555.66;;;17.78;87.35
21742;BME280;11033;47.490;11.116;2022-08-06T04:01:47;93569.19;;;17.94;84.95
21742;BME280;11033;47.490;11.116;2022-08-06T04:04:14;93567.72;;;17.80;87.62
21742;BME280;11033;47.490;11.116;2022-08-06T04:06:42;93572.28;;;17.91;86.05
21742;BME280;11033;47.490;11.116;2022-08-06T04:09:08;93570.53;;;17.85;84.91
21742;BME280;11033;47.490;11.116;2022-08-06T04:11:35;93573.19;;;17.85;86.47
21742;BME280;11033;47.490;11.116;2022-08-06T04:14:00;93570.31;;;17.87;84.68
21742;BME280;11033;47.490;11.116;2022-08-06T04:16:26;93577.13;;;17.83;84.70
21742;BME280;11033;47.490;11.116;2022-08-06T04:18:53;93581.13;;;17.73;86.70
21742;BME280;11033;47.490;11.116;2022-08-06T04:21:23;93576.91;;;17.84;84.27
21742;BME280;11033;47.490;11.116;2022-08-06T04:23:49;93583.50;;;17.82;84.23
21742;BME280;11033;47.490;11.116;2022-08-06T04:26:16;93592.44;;;17.87;83.31
21742;BME280;11033;47.490;11.116;2022-08-06T04:28:47;93604.38;;;17.85;83.15
21742;BME280;11033;47.490;11.116;2022-08-06T04:31:13;93618.56;;;17.97;81.73
21742;BME280;11033;47.490;11.116;2022-08-06T04:33:39;93626.13;;;17.82;86.56
21742;BME280;11033;47.490;11.116;2022-08-06T04:36:06;93635.16;;;17.81;87.25
21742;BME280;11033;47.490;11.116;2022-08-06T04:38:32;93647.75;;;17.92;84.29
21742;BME280;11033;47.490;11.116;2022-08-06T04:40:59;93653.06;;;17.92;84.03
21742;BME280;11033;47.490;11.116;2022-08-06T04:43:25;93653.06;;;17.92;85.57
21742;BME280;11033;47.490;11.116;2022-08-06T04:45:51;93655.59;;;17.87;87.77
21742;BME280;11033;47.490;11.116;2022-08-06T04:48:17;93660.19;;;17.98;84.41
21742;BME280;11033;47.490;11.116;2022-08-06T04:50:42;93658.72;;;18.02;83.77
21742;BME280;11033;47.490;11.116;2022-08-06T04:53:10;93662.34;;;18.08;83.70
21742;BME280;11033;47.490;11.116;2022-08-06T04:55:37;93657.50;;;18.16;82.00
21742;BME280;11033;47.490;11.116;2022-08-06T04:58:03;93659.44;;;18.09;83.50
21742;BME280;11033;47.490;11.116;2022-08-06T05:00:33;93665.38;;;18.11;83.96
21742;BME280;11033;47.490;11.116;2022-08-06T05:02:59;93666.03;;;18.06;85.50
21742;BME280;11033;47.490;11.116;2022-08-06T05:05:25;93667.31;;;18.22;82.59
21742;BME280;11033;47.490;11.116;2022-08-06T05:07:53;93669.22;;;18.15;84.94
21742;BME280;11033;47.490;11.116;2022-08-06T05:10:20;93671.50;;;18.12;86.00
21742;BME280;11033;47.490;11.116;2022-08-06T05:12:52;93671.16;;;17.90;87.73
21742;BME280;11033;47.490;11.116;2022-08-06T05:15:28;93676.78;;;18.00;87.08
21742;BME280;11033;47.490;11.116;2022-08-06T05:18:02;93677.97;;;18.04;86.54
21742;BME280;11033;47.490;11.116;2022-08-06T05:20:37;93680.31;;;17.94;87.03
21742;BME280;11033;47.490;11.116;2022-08-06T05:23:09;93680.63;;;17.86;86.97
21742;BME280;11033;47.490;11.116;2022-08-06T05:25:37;93678.34;;;18.08;84.20
21742;BME280;11033;47.490;11.116;2022-08-06T05:28:06;93681.06;;;18.19;83.35
21742;BME280;11033;47.490;11.116;2022-08-06T05:30:32;93688.03;;;18.20;85.26
21742;BME280;11033;47.490;11.116;2022-08-06T05:32:57;93695.16;;;18.26;86.54
21742;BME280;11033;47.490;11.116;2022-08-06T05:35:26;93686.50;;;18.31;84.65
21742;BME280;11033;47.490;11.116;2022-08-06T05:37:51;93686.56;;;18.24;86.35
21742;BME280;11033;47.490;11.116;2022-08-06T05:40:16;93682.56;;;18.33;85.82
21742;BME280;11033;47.490;11.116;2022-08-06T05:42:41;93685.38;;;18.38;85.63
21742;BME280;11033;47.490;11.116;2022-08-06T05:45:10;93686.19;;;18.39;87.13
21742;BME280;11033;47.490;11.116;2022-08-06T05:47:37;93690.63;;;18.45;86.36
21742;BME280;11033;47.490;11.116;2022-08-06T05:50:08;93693.56;;;18.55;83.15
21742;BME280;11033;47.490;11.116;2022-08-06T05:53:02;93694.09;;;18.64;82.17
21742;BME280;11033;47.490;11.116;2022-08-06T05:55:45;93693.81;;;18.54;84.39
21742;BME280;11033;47.490;11.116;2022-08-06T05:58:17;93696.66;;;18.22;86.30
21742;BME280;11033;47.490;11.116;2022-08-06T06:00:43;93699.84;;;18.31;86.14
21742;BME280;11033;47.490;11.116;2022-08-06T06:03:15;93708.53;;;18.56;84.50
21742;BME280;11033;47.490;11.116;2022-08-06T06:05:42;93700.94;;;18.42;85.54
21742;BME280;11033;47.490;11.116;2022-08-06T06:08:08;93700.78;;;18.55;83.54
21742;BME280;11033;47.490;11.116;2022-08-06T06:10:35;93700.50;;;18.63;83.27
21742;BME280;11033;47.490;11.116;2022-08-06T06:13:04;93709.91;;;18.65;83.15
21742;BME280;11033;47.490;11.116;2022-08-06T06:15:31;93705.00;;;18.44;85.70
21742;BME280;11033;47.490;11.116;2022-08-06T06:18:48;93710.03;;;18.16;88.25
21742;BME280;11033;47.490;11.116;2022-08-06T06:23:53;93711.75;;;18.65;82.72
21742;BME280;11033;47.490;11.116;2022-08-06T06:26:35;93720.16;;;18.80;81.86
21742;BME280;11033;47.490;11.116;2022-08-06T06:35:27;93709.94;;;18.95;82.27
21742;BME280;11033;47.490;11.116;2022-08-06T06:38:02;93715.72;;;18.92;83.27
21742;BME280;11033;47.490;11.116;2022-08-06T06:40:41;93716.13;;;19.08;80.73
21742;BME280;11033;47.490;11.116;2022-08-06T06:43:15;93718.47;;;19.16;81.17
21742;BME280;11033;47.490;11.116;2022-08-06T06:48:23;93726.53;;;19.39;80.03
21742;BME280;11033;47.490;11.116;2022-08-06T06:50:52;93725.03;;;19.43;80.35
21742;BME280;11033;47.490;11.116;2022-08-06T06:53:20;93724.94;;;19.50;80.50
21742;BME280;11033;47.490;11.116;2022-08-06T06:55:49;93724.28;;;19.54;81.81
21742;BME280;11033;47.490;11.116;2022-08-06T06:58:27;93733.03;;;19.61;81.56
21742;BME280;11033;47.490;11.116;2022-08-06T07:00:54;93734.06;;;19.60;81.83
21742;BME280;11033;47.490;11.116;2022-08-06T07:03:21;93731.16;;;19.74;81.59
21742;BME280;11033;47.490;11.116;2022-08-06T07:05:49;93730.69;;;19.53;80.79
21742;BME280;11033;47.490;11.116;2022-08-06T07:08:17;93729.75;;;19.59;83.21
21742;BME280;11033;47.490;11.116;2022-08-06T07:10:45;93731.53;;;19.89;80.37
21742;BME280;11033;47.490;11.116;2022-08-06T07:13:11;93729.53;;;19.96;80.92
21742;BME280;11033;47.490;11.116;2022-08-06T07:15:40;93726.88;;;20.08;79.29
21742;BME280;11033;47.490;11.116;2022-08-06T07:18:06;93724.69;;;20.16;80.95
21742;BME280;11033;47.490;11.116;2022-08-06T07:20:33;93728.03;;;20.23;79.97
21742;BME280;11033;47.490;11.116;2022-08-06T07:23:02;93720.69;;;20.31;80.92
21742;BME280;11033;47.490;11.116;2022-08-06T07:25:28;93727.69;;;20.20;80.63
21742;BME280;11033;47.490;11.116;2022-08-06T07:27:54;93722.34;;;20.32;80.13
21742;BME280;11033;47.490;11.116;2022-08-06T07:30:20;93721.63;;;20.48;79.10
21742;BME280;11033;47.490;11.116;2022-08-06T07:32:48;93725.47;;;20.52;77.64
21742;BME280;11033;47.490;11.116;2022-08-06T07:35:16;93723.16;;;20.32;78.13
21742;BME280;11033;47.490;11.116;2022-08-06T07:37:57;93729.78;;;20.18;77.36
21742;BME280;11033;47.490;11.116;2022-08-06T07:40:27;93725.84;;;20.44;77.29
21742;BME280;11033;47.490;11.116;2022-08-06T07:43:19;93727.66;;;20.55;77.19
21742;BME280;11033;47.490;11.116;2022-08-06T07:45:44;93726.97;;;20.48;78.19
21742;BME280;11033;47.490;11.116;2022-08-06T07:48:12;93729.09;;;20.22;77.93
21742;BME280;11033;47.490;11.116;2022-08-06T07:50:43;93727.94;;;20.42;77.81
21742;BME280;11033;47.490;11.116;2022-08-06T07:53:10;93729.59;;;20.71;76.40
21742;BME280;11033;47.490;11.116;2022-08-06T07:55:37;93725.91;;;20.61;76.69
21742;BME280;11033;47.490;11.116;2022-08-06T07:58:04;93729.22;;;20.79;76.87
21742;BME280;11033;47.490;11.116;2022-08-06T08:00:30;93730.56;;;20.65;77.32
21742;BME280;11033;47.490;11.116;2022-08-06T08:02:57;93741.38;;;20.70;77.19
21742;BME280;11033;47.490;11.116;2022-08-06T08:05:42;93734.72;;;20.73;78.87
21742;BME280;11033;47.490;11.116;2022-08-06T08:08:29;93733.09;;;20.72;78.35
21742;BME280;11033;47.490;11.116;2022-08-06T08:10:54;93726.78;;;20.89;77.28
21742;BME280;11033;47.490;11.116;2022-08-06T08:13:21;93743.13;;;21.05;77.31
21742;BME280;11033;47.490;11.116;2022-08-06T08:15:48;93736.66;;;21.17;76.49
21742;BME280;11033;47.490;11.116;2022-08-06T08:18:14;93733.75;;;21.19;74.93
21742;BME280;11033;47.490;11.116;2022-08-06T08:20:41;93735.66;;;21.07;75.16
21742;BME280;11033;47.490;11.116;2022-08-06T08:23:09;93742.03;;;21.17;75.45
21742;BME280;11033;47.490;11.116;2022-08-06T08:25:37;93738.50;;;21.29;75.20
21742;BME280;11033;47.490;11.116;2022-08-06T08:28:02;93741.09;;;21.24;74.71
21742;BME280;11033;47.490;11.116;2022-08-06T08:30:27;93742.28;;;21.16;75.29
21742;BME280;11033;47.490;11.116;2022-08-06T08:32:53;93742.19;;;21.11;74.84
21742;BME280;11033;47.490;11.116;2022-08-06T08:35:18;93746.66;;;20.94;74.33
21742;BME280;11033;47.490;11.116;2022-08-06T08:37:43;93744.38;;;20.85;74.89
21742;BME280;11033;47.490;11.116;2022-08-06T08:40:09;93740.94;;;21.30;73.54
21742;BME280;11033;47.490;11.116;2022-08-06T08:42:43;93744.38;;;21.42;73.82
21742;BME280;11033;47.490;11.116;2022-08-06T08:45:10;93750.91;;;21.46;73.58
21742;BME280;11033;47.490;11.116;2022-08-06T08:47:42;93742.75;;;21.41;72.67
21742;BME280;11033;47.490;11.116;2022-08-06T08:50:09;93743.91;;;21.45;73.41
21742;BME280;11033;47.490;11.116;2022-08-06T08:52:38;93743.28;;;21.72;72.54
21742;BME280;11033;47.490;11.116;2022-08-06T08:55:06;93742.63;;;21.65;73.83
21742;BME280;11033;47.490;11.116;2022-08-06T08:57:35;93749.72;;;21.71;72.76
21742;BME280;11033;47.490;11.116;2022-08-06T09:00:02;93748.97;;;21.59;73.08
21742;BME280;11033;47.490;11.116;2022-08-06T09:02:28;93752.16;;;21.27;73.74
21742;BME280;11033;47.490;11.116;2022-08-06T09:04:54;93749.06;;;21.64;73.64
21742;BME280;11033;47.490;11.116;2022-08-06T09:07:20;93758.56;;;21.88;72.98
21742;BME280;11033;47.490;11.116;2022-08-06T09:09:46;93751.81;;;21.69;73.25
21742;BME280;11033;47.490;11.116;2022-08-06T09:12:11;93754.84;;;21.89;73.59
21742;BME280;11033;47.490;11.116;2022-08-06T09:14:37;93751.16;;;21.62;73.48
21742;BME280;11033;47.490;11.116;2022-08-06T09:17:04;93759.41;;;21.43;74.77
21742;BME280;11033;47.490;11.116;2022-08-06T09:19:31;93760.84;;;21.63;73.75
21742;BME280;11033;47.490;11.116;2022-08-06T09:21:57;93762.47;;;21.97;72.58
21742;BME280;11033;47.490;11.116;2022-08-06T09:24:23;93768.41;;;21.99;72.84
21742;BME280;11033;47.490;11.116;2022-08-06T09:29:34;93769.38;;;21.93;71.93
21742;BME280;11033;47.490;11.116;2022-08-06T09:32:01;93762.91;;;22.23;71.37
21742;BME280;11033;47.490;11.116;2022-08-06T09:34:35;93759.09;;;22.19;70.09
21742;BME280;11033;47.490;11.116;2022-08-06T09:37:00;93761.50;;;22.37;70.04
21742;BME280;11033;47.490;11.116;2022-08-06T09:39:37;93773.13;;;22.42;70.17
21742;BME280;11033;47.490;11.116;2022-08-06T09:42:06;93766.81;;;22.32;70.26
21742;BME280;11033;47.490;11.116;2022-08-06T09:44:32;93774.28;;;22.30;69.72
21742;BME280;11033;47.490;11.116;2022-08-06T09:46:58;93765.56;;;21.89;69.42
21742;BME280;11033;47.490;11.116;2022-08-06T09:49:25;93772.19;;;22.32;70.02
21742;BME280;11033;47.490;11.116;2022-08-06T09:51:50;93773.56;;;22.18;69.47
21742;BME280;11033;47.490;11.116;2022-08-06T09:54:16;93774.34;;;22.01;68.62
21742;BME280;11033;47.490;11.116;2022-08-06T09:56:42;93769.28;;;22.17;69.12
21742;BME280;11033;47.490;11.116;2022-08-06T09:59:08;93774.06;;;22.14;68.88
21742;BME280;11033;47.490;11.116;2022-08-06T10:01:46;93767.31;;;22.29;68.80
21742;BME280;11033;47.490;11.116;2022-08-06T10:04:32;93768.34;;;21.94;68.60
21742;BME280;11033;47.490;11.116;2022-08-06T10:07:00;93778.22;;;21.32;70.30
21742;BME280;11033;47.490;11.116;2022-08-06T10:09:26;93764.25;;;21.75;70.07
21742;BME280;11033;47.490;11.116;2022-08-06T10:11:52;93769.97;;;21.95;68.87
21742;BME280;11033;47.490;11.116;2022-08-06T10:14:27;93768.97;;;22.01;68.98
21742;BME280;11033;47.490;11.116;2022-08-06T10:17:13;93766.91;;;22.03;68.84
21742;BME280;11033;47.490;11.116;2022-08-06T10:19:43;93767.78;;;22.09;69.19
21742;BME280;11033;47.490;11.116;2022-08-06T10:22:13;93769.00;;;21.39;69.12
21742;BME280;11033;47.490;11.116;2022-08-06T10:24:44;93768.66;;;21.81;68.76
21742;BME280;11033;47.490;11.116;2022-08-06T10:27:10;93760.72;;;22.20;67.64
21742;BME280;11033;47.490;11.116;2022-08-06T10:29:42;93760.69;;;22.36;67.75
21742;BME280;11033;47.490;11.116;2022-08-06T10:32:09;93767.03;;;22.47;67.28
21742;BME280;11033;47.490;11.116;2022-08-06T10:34:38;93767.78;;;22.64;67.25
21742;BME280;11033;47.490;11.116;2022-08-06T10:37:06;93773.34;;;22.58;67.07
21742;BME280;11033;47.490;11.116;2022-08-06T10:39:34;93776.34;;;22.23;66.12
21742;BME280;11033;47.490;11.116;2022-08-06T10:42:02;93778.75;;;21.91;66.53
21742;BME280;11033;47.490;11.116;2022-08-06T10:44:28;93778.22;;;21.60;67.85
21742;BME280;11033;47.490;11.116;2022-08-06T10:46:55;93785.38;;;22.17;66.94
21742;BME280;11033;47.490;11.116;2022-08-06T10:49:21;93792.13;;;21.17;68.41
21742;BME280;11033;47.490;11.116;2022-08-06T10:51:49;93783.16;;;21.23;68.00
21742;BME280;11033;47.490;11.116;2022-08-06T10:54:16;93797.72;;;20.29;70.18
21742;BME280;11033;47.490;11.116;2022-08-06T10:56:42;93798.06;;;20.32;70.49
21742;BME280;11033;47.490;11.116;2022-08-06T10:59:07;93795.41;;;20.44;70.48
21742;BME280;11033;47.490;11.116;2022-08-06T11:04:33;93799.59;;;20.28;70.65
21742;BME280;11033;47.490;11.116;2022-08-06T11:07:25;93789.25;;;21.07;69.17
21742;BME280;11033;47.490;11.116;2022-08-06T11:15:40;93793.31;;;20.22;71.52
21742;BME280;11033;47.490;11.116;2022-08-06T11:18:09;93794.19;;;19.93;72.27
21742;BME280;11033;47.490;11.116;2022-08-06T11:20:43;93795.84;;;20.64;70.49
21742;BME280;11033;47.490;11.116;2022-08-06T11:25:43;93788.56;;;20.48;71.63
21742;BME280;11033;47.490;11.116;2022-08-06T11:28:10;93797.69;;;20.75;70.17
21742;BME280;11033;47.490;11.116;2022-08-06T11:30:53;93791.75;;;20.73;70.32
21742;BME280;11033;47.490;11.116;2022-08-06T11:35:58;93796.69;;;20.53;70.32
21742;BME280;11033;47.490;11.116;2022-08-06T11:41:09;93798.84;;;20.91;70.35
21742;BME280;11033;47.490;11.116;2022-08-06T11:46:26;93802.56;;;21.02;68.67
21742;BME280;11033;47.490;11.116;2022-08-06T11:54:16;93800.72;;;20.91;69.02
21742;BME280;11033;47.490;11.116;2022-08-06T12:03:00;93802.63;;;20.43;71.24
21742;BME280;11033;47.490;11.116;2022-08-06T12:05:00;93801.25;;;20.41;70.46
21742;BME280;11033;47.490;11.116;2022-08-06T12:07:31;93796.41;;;19.96;72.06
21742;BME280;11033;47.490;11.116;2022-08-06T12:10:00;93798.19;;;20.61;70.82
21742;BME280;11033;47.490;11.116;2022-08-06T12:14:54;93793.88;;;20.83;70.42
21742;BME280;11033;47.490;11.116;2022-08-06T12:17:21;93795.75;;;20.59;70.97
21742;BME280;11033;47.490;11.116;2022-08-06T12:19:51;93793.75;;;20.66;70.39
21742;BME280;11033;47.490;11.116;2022-08-06T12:22:18;93790.03;;;20.32;72.54
21742;BME280;11033;47.490;11.116;2022-08-06T12:24:45;93787.56;;;20.77;70.98
21742;BME280;11033;47.490;11.116;2022-08-06T12:27:12;93785.34;;;20.74;71.21
21742;BME280;11033;47.490;11.116;2022-08-06T12:29:38;93793.06;;;20.59;72.06
21742;BME280;11033;47.490;11.116;2022-08-06T12:32:30;93787.25;;;20.39;72.48
21742;BME280;11033;47.490;11.116;2022-08-06T12:35:10;93787.69;;;19.89;74.07
21742;BME280;11033;47.490;11.116;2022-08-06T12:37:37;93784.56;;;20.04;74.28
21742;BME280;11033;47.490;11.116;2022-08-06T12:40:06;93792.50;;;20.34;73.57
21742;BME280;11033;47.490;11.116;2022-08-06T12:42:51;93789.84;;;20.45;73.24
21742;BME280;11033;47.490;11.116;2022-08-06T12:45:23;93778.63;;;20.60;72.27
21742;BME280;11033;47.490;11.116;2022-08-06T12:48:02;93783.06;;;20.31;73.65
21742;BME280;11033;47.490;11.116;2022-08-06T12:50:29;93785.41;;;20.51;72.79
21742;BME280;11033;47.490;11.116;2022-08-06T12:53:14;93773.50;;;20.70;71.50
21742;BME280;11033;47.490;11.116;2022-08-06T12:55:51;93777.59;;;20.38;72.32
21742;BME280;11033;47.490;11.116;2022-08-06T12:58:30;93780.06;;;20.51;72.22
21742;BME280;11033;47.490;11.116;2022-08-06T13:00:58;93781.00;;;20.45;72.32
21742;BME280;11033;47.490;11.116;2022-08-06T13:03:24;93785.63;;;20.38;72.23
21742;BME280;11033;47.490;11.116;2022-08-06T13:05:52;93782.81;;;20.09;72.89
21742;BME280;11033;47.490;11.116;2022-08-06T13:08:20;93782.91;;;19.79;74.26
21742;BME280;11033;47.490;11.116;2022-08-06T13:10:52;93788.97;;;19.86;74.32
21742;BME280;11033;47.490;11.116;2022-08-06T13:13:19;93786.34;;;20.45;72.58
21742;BME280;11033;47.490;11.116;2022-08-06T13:16:17;93787.94;;;20.57;72.11
21742;BME280;11033;47.490;11.116;2022-08-06T13:19:02;93782.72;;;20.27;72.68
21742;BME280;11033;47.490;11.116;2022-08-06T13:21:29;93780.06;;;20.51;71.71
21742;BME280;11033;47.490;11.116;2022-08-06T13:23:54;93784.22;;;20.23;73.05
21742;BME280;11033;47.490;11.116;2022-08-06T13:26:22;93783.66;;;20.21;72.93
21742;BME280;11033;47.490;11.116;2022-08-06T13:29:13;93778.97;;;20.64;71.39
21742;BME280;11033;47.490;11.116;2022-08-06T13:31:43;93783.78;;;20.26;72.43
21742;BME280;11033;47.490;11.116;2022-08-06T13:34:11;93773.03;;;19.80;72.86
21742;BME280;11033;47.490;11.116;2022-08-06T13:36:40;93784.69;;;20.20;72.08
21742;BME280;11033;47.490;11.116;2022-08-06T13:39:25;93784.78;;;20.02;72.94
21742;BME280;11033;47.490;11.116;2022-08-06T13:42:09;93781.56;;;20.35;71.85
21742;BME280;11033;47.490;11.116;2022-08-06T13:44:39;93776.78;;;20.25;72.50
21742;BME280;11033;47.490;11.116;2022-08-06T13:47:06;93780.72;;;19.88;72.62
21742;BME280;11033;47.490;11.116;2022-08-06T13:49:32;93780.47;;;20.01;72.54
21742;BME280;11033;47.490;11.116;2022-08-06T13:51:58;93785.34;;;19.81;74.08
21742;BME280;11033;47.490;11.116;2022-08-06T13:54:24;93775.34;;;19.88;73.06